Terminal Aerodrome Forecast
Issued by NWS Cleveland, OH

Home | Current Version | Previous Version | Text Only | Print | Product List | Glossary Off
Versions: 1 2 3 4 5 6 7 8 9 10 11 12 13 14 15 16 17 18 19 20 21 22

000
FTUS41 KCLE 190251 AAB
TAFCAK
TAF AMD
KCAK 190251Z 1903/1924 30015G30KT 6SM -SHRA OVC008
     FM190800 31020G35KT P6SM VCSH OVC015
     FM191500 29015G25KT P6SM OVC025=

USA.gov is the U.S. government's official web portal to all federal, state and local government web resources and services.